Time;durP1;ratioP1;P1;durP2;ratioP2;P2;SDS_P1;SDS_P2;PMS_P1;PMS_P2;Temp;Humidity;BMP_temperature;BMP_pressure;BME280_temperature;BME280_humidity;BME280_pressure;Samples;Min_cycle;Max_cycle;Signal;HPM_P1;HPM_P2
2022/08/30 00:02:23;;;;;;;5.13;2.00;;;;;;;;;;4998659;28;20069;-60
2022/08/30 00:04:48;;;;;;;6.55;2.03;;;;;;;;;;4997884;28;20534;-59
2022/08/30 00:07:13;;;;;;;2.80;1.80;;;;;;;;;;4999820;28;20038;-60
2022/08/30 00:09:39;;;;;;;3.53;1.90;;;;;;;;;;5002965;28;20050;-60
2022/08/30 00:12:05;;;;;;;4.05;2.03;;;;;;;;;;4999996;28;20180;-60
2022/08/30 00:14:30;;;;;;;3.35;2.00;;;;;;;;;;4999812;28;20045;-60
2022/08/30 00:16:55;;;;;;;2.67;1.73;;;;;;;;;;5001571;28;20025;-61
2022/08/30 00:19:21;;;;;;;3.25;2.00;;;;;;;;;;5000608;28;20132;-62
2022/08/30 00:21:46;;;;;;;2.63;1.67;;;;;;;;;;4999123;28;20050;-61
2022/08/30 00:24:12;;;;;;;5.70;2.13;;;;;;;;;;5006167;28;20073;-61
2022/08/30 00:26:37;;;;;;;3.03;1.80;;;;;;;;;;4997395;28;20044;-61
2022/08/30 00:29:02;;;;;;;6.80;2.10;;;;;;;;;;4999621;28;20049;-60
2022/08/30 00:31:28;;;;;;;2.58;1.60;;;;;;;;;;5000774;28;20133;-61
2022/08/30 00:33:53;;;;;;;3.38;1.70;;;;;;;;;;5002330;28;20142;-61
2022/08/30 00:36:18;;;;;;;4.88;1.80;;;;;;;;;;4999963;28;20477;-65
2022/08/30 00:38:44;;;;;;;5.40;1.60;;;;;;;;;;4997358;28;21703;-60
2022/08/30 00:41:09;;;;;;;4.25;1.75;;;;;;;;;;4994747;28;20049;-61
2022/08/30 00:43:35;;;;;;;3.92;1.80;;;;;;;;;;4996882;28;20049;-60
2022/08/30 00:46:06;;;;;;;3.30;1.83;;;;;;;;;;4996140;28;20373;-63
2022/08/30 00:48:34;;;;;;;4.28;1.70;;;;;;;;;;4996537;28;20049;-61
2022/08/30 00:51:04;;;;;;;2.10;1.60;;;;;;;;;;5004341;28;20050;-61
2022/08/30 00:53:35;;;;;;;2.22;1.40;;;;;;;;;;5004370;28;20084;-61
2022/08/30 00:56:02;;;;;;;3.92;1.92;;;;;;;;;;5005332;28;20065;-60
2022/08/30 00:58:31;;;;;;;4.20;1.80;;;;;;;;;;4999082;28;20112;-61
2022/08/30 01:00:59;;;;;;;2.40;1.50;;;;;;;;;;4997206;28;20037;-69
2022/08/30 01:03:26;;;;;;;3.08;1.73;;;;;;;;;;4997077;28;20575;-68
2022/08/30 01:05:52;;;;;;;3.35;1.60;;;;;;;;;;5001820;28;20100;-69
2022/08/30 01:08:21;;;;;;;4.38;1.92;;;;;;;;;;5002789;28;20144;-69
2022/08/30 01:10:47;;;;;;;3.97;1.90;;;;;;;;;;5004477;28;20060;-68
2022/08/30 01:13:14;;;;;;;3.97;1.77;;;;;;;;;;4998863;28;20046;-68
2022/08/30 01:15:41;;;;;;;4.13;2.00;;;;;;;;;;4999119;28;20049;-69
2022/08/30 01:18:07;;;;;;;3.55;2.05;;;;;;;;;;5000262;28;20054;-70
2022/08/30 01:20:42;;;;;;;5.15;1.75;;;;;;;;;;5004066;28;20541;-70
2022/08/30 01:23:12;;;;;;;3.67;1.77;;;;;;;;;;5001698;28;20138;-69
2022/08/30 01:25:41;;;;;;;3.90;1.65;;;;;;;;;;4999827;28;20120;-70
2022/08/30 01:28:10;;;;;;;3.65;1.80;;;;;;;;;;5000826;28;20060;-69
2022/08/30 01:30:41;;;;;;;5.32;1.80;;;;;;;;;;5002070;28;20103;-69
2022/08/30 01:33:09;;;;;;;3.75;1.85;;;;;;;;;;5002379;28;20416;-68
2022/08/30 01:35:55;;;;;;;4.63;1.80;;;;;;;;;;5002728;28;20050;-69
2022/08/30 01:38:25;;;;;;;9.18;1.90;;;;;;;;;;4998158;28;20101;-69
2022/08/30 01:40:56;;;;;;;4.90;1.73;;;;;;;;;;5000534;28;20486;-69
2022/08/30 01:43:21;;;;;;;5.15;2.03;;;;;;;;;;5003286;28;20042;-69
2022/08/30 01:45:47;;;;;;;3.70;1.67;;;;;;;;;;4999136;28;20671;-70
2022/08/30 01:48:13;;;;;;;3.40;1.80;;;;;;;;;;4999200;28;20077;-70
2022/08/30 01:50:40;;;;;;;6.35;2.20;;;;;;;;;;5004240;28;20046;-69
2022/08/30 01:53:06;;;;;;;2.97;1.75;;;;;;;;;;4999985;28;20434;-68
2022/08/30 01:55:31;;;;;;;3.88;1.77;;;;;;;;;;5005980;28;20081;-68
2022/08/30 01:57:57;;;;;;;2.70;1.90;;;;;;;;;;5000488;28;20522;-69
2022/08/30 02:00:22;;;;;;;6.07;1.77;;;;;;;;;;4999430;28;20085;-69
2022/08/30 02:02:48;;;;;;;6.82;2.03;;;;;;;;;;4996930;28;20054;-68
2022/08/30 02:05:14;;;;;;;4.10;1.77;;;;;;;;;;4998362;28;20514;-69
2022/08/30 02:07:40;;;;;;;4.10;2.00;;;;;;;;;;5002718;28;20045;-69
2022/08/30 02:10:06;;;;;;;3.10;1.90;;;;;;;;;;5001150;28;20487;-68
2022/08/30 02:12:33;;;;;;;4.72;1.90;;;;;;;;;;5001311;28;20411;-68
2022/08/30 02:14:59;;;;;;;3.15;1.60;;;;;;;;;;4998253;28;20055;-68
2022/08/30 02:17:26;;;;;;;2.88;1.65;;;;;;;;;;5000078;28;20053;-70
2022/08/30 02:19:52;;;;;;;3.60;1.90;;;;;;;;;;4997213;28;20039;-70
2022/08/30 02:22:19;;;;;;;2.40;1.52;;;;;;;;;;5006691;28;20042;-70
2022/08/30 02:24:45;;;;;;;3.92;1.70;;;;;;;;;;4999696;28;20042;-68
2022/08/30 02:27:10;;;;;;;4.40;1.50;;;;;;;;;;4998189;28;20402;-69
2022/08/30 02:29:36;;;;;;;3.85;1.95;;;;;;;;;;5001368;28;20042;-69
2022/08/30 02:32:01;;;;;;;4.50;1.73;;;;;;;;;;5001265;28;20659;-70
2022/08/30 02:34:27;;;;;;;4.53;1.63;;;;;;;;;;5001011;28;20030;-69
2022/08/30 02:36:52;;;;;;;5.53;1.90;;;;;;;;;;4995661;28;20060;-69
2022/08/30 02:39:18;;;;;;;4.70;1.55;;;;;;;;;;5000668;28;20046;-69
2022/08/30 02:41:43;;;;;;;4.00;1.70;;;;;;;;;;5001430;28;20058;-68
2022/08/30 02:44:09;;;;;;;3.72;1.73;;;;;;;;;;5001819;28;20043;-69
2022/08/30 02:46:35;;;;;;;6.43;1.60;;;;;;;;;;5000872;28;20034;-68
2022/08/30 02:49:01;;;;;;;3.35;1.45;;;;;;;;;;5002310;28;20049;-70
2022/08/30 02:51:26;;;;;;;3.40;1.30;;;;;;;;;;4997037;28;20382;-70
2022/08/30 02:53:52;;;;;;;3.45;1.55;;;;;;;;;;4999646;28;20046;-71
2022/08/30 02:56:17;;;;;;;4.88;1.55;;;;;;;;;;4998365;28;20070;-70
2022/08/30 02:58:43;;;;;;;5.65;2.00;;;;;;;;;;5003319;28;20026;-71
2022/08/30 03:01:12;;;;;;;2.88;1.70;;;;;;;;;;5000947;28;20519;-69
2022/08/30 03:03:38;;;;;;;3.47;1.65;;;;;;;;;;4999623;28;20054;-69
2022/08/30 03:06:03;;;;;;;6.75;1.95;;;;;;;;;;5001373;28;20046;-70
2022/08/30 03:08:30;;;;;;;4.85;1.80;;;;;;;;;;5000659;28;20113;-69
2022/08/30 03:10:56;;;;;;;2.38;1.60;;;;;;;;;;5006004;28;20076;-70
2022/08/30 03:13:22;;;;;;;4.35;1.75;;;;;;;;;;5005123;28;20046;-70
2022/08/30 03:15:49;;;;;;;3.63;1.83;;;;;;;;;;4998932;28;20042;-68
2022/08/30 03:18:18;;;;;;;5.57;1.85;;;;;;;;;;4997546;28;20057;-69
2022/08/30 03:20:44;;;;;;;3.42;1.80;;;;;;;;;;5001731;28;20508;-69
2022/08/30 03:23:09;;;;;;;4.25;1.88;;;;;;;;;;4966698;28;20163;-69
2022/08/30 03:25:35;;;;;;;6.78;1.60;;;;;;;;;;5001927;28;20048;-70
2022/08/30 03:28:01;;;;;;;4.78;1.58;;;;;;;;;;5003654;28;20049;-70
2022/08/30 03:30:27;;;;;;;4.80;1.80;;;;;;;;;;5000500;28;20209;-70
2022/08/30 03:32:52;;;;;;;2.97;1.90;;;;;;;;;;4996195;28;20540;-69
2022/08/30 03:35:18;;;;;;;4.22;1.63;;;;;;;;;;4999337;28;20049;-69
2022/08/30 03:37:44;;;;;;;3.30;1.58;;;;;;;;;;5002117;28;20480;-69
2022/08/30 03:40:12;;;;;;;3.42;1.70;;;;;;;;;;4998968;28;20128;-69
2022/08/30 03:42:38;;;;;;;3.42;1.83;;;;;;;;;;4997993;28;20068;-68
2022/08/30 03:45:04;;;;;;;4.25;1.90;;;;;;;;;;4997442;28;20058;-69
2022/08/30 03:47:30;;;;;;;3.63;2.00;;;;;;;;;;4998256;28;20050;-68
2022/08/30 03:49:56;;;;;;;3.03;1.67;;;;;;;;;;4983075;28;20032;-69
2022/08/30 03:52:21;;;;;;;3.10;1.60;;;;;;;;;;4999162;28;20042;-68
2022/08/30 03:54:46;;;;;;;5.22;1.70;;;;;;;;;;4985924;28;20060;-69
2022/08/30 03:57:12;;;;;;;5.80;2.10;;;;;;;;;;4997044;28;20224;-69
2022/08/30 03:59:38;;;;;;;8.95;1.95;;;;;;;;;;4982503;28;20045;-69
2022/08/30 04:02:04;;;;;;;4.63;2.05;;;;;;;;;;4998015;28;20042;-69
2022/08/30 04:04:29;;;;;;;2.83;1.73;;;;;;;;;;5005602;28;20144;-69
2022/08/30 04:06:55;;;;;;;5.78;1.95;;;;;;;;;;4998242;28;20049;-69
2022/08/30 04:09:21;;;;;;;2.97;1.80;;;;;;;;;;5008351;28;20048;-69
2022/08/30 04:11:46;;;;;;;4.78;1.92;;;;;;;;;;5003729;28;20038;-69
2022/08/30 04:14:12;;;;;;;3.97;1.92;;;;;;;;;;5003890;28;20051;-69
2022/08/30 04:16:38;;;;;;;3.20;1.90;;;;;;;;;;4998206;28;20026;-69
2022/08/30 04:19:03;;;;;;;3.85;1.70;;;;;;;;;;5006465;28;20045;-68
2022/08/30 04:21:28;;;;;;;3.33;1.80;;;;;;;;;;4999190;28;20909;-69
2022/08/30 04:23:54;;;;;;;4.03;2.03;;;;;;;;;;5004226;28;20046;-69
2022/08/30 04:26:19;;;;;;;3.67;2.15;;;;;;;;;;5000217;28;20050;-69
2022/08/30 04:28:45;;;;;;;4.63;2.22;;;;;;;;;;4985892;28;20212;-69
2022/08/30 04:31:13;;;;;;;6.25;2.45;;;;;;;;;;5003398;28;20049;-69
2022/08/30 04:33:39;;;;;;;5.53;3.10;;;;;;;;;;5002241;28;20132;-68
2022/08/30 04:36:07;;;;;;;9.73;3.65;;;;;;;;;;5003218;28;20084;-69
2022/08/30 04:38:34;;;;;;;10.30;4.10;;;;;;;;;;5004714;28;20042;-68
2022/08/30 04:41:00;;;;;;;9.60;4.07;;;;;;;;;;5002653;28;20049;-69
2022/08/30 04:43:26;;;;;;;8.45;4.05;;;;;;;;;;5006131;28;20028;-70
2022/08/30 04:45:53;;;;;;;17.02;4.50;;;;;;;;;;4998950;28;20057;-69
2022/08/30 04:48:21;;;;;;;7.57;4.32;;;;;;;;;;5001670;28;20095;-69
2022/08/30 04:50:46;;;;;;;8.50;4.22;;;;;;;;;;5005821;28;20046;-71
2022/08/30 04:53:13;;;;;;;10.45;4.25;;;;;;;;;;5004374;28;20057;-70
2022/08/30 04:55:40;;;;;;;8.65;3.83;;;;;;;;;;5002387;28;20380;-73
2022/08/30 04:58:06;;;;;;;7.57;3.33;;;;;;;;;;5005350;28;20050;-70
2022/08/30 05:00:32;;;;;;;10.57;3.47;;;;;;;;;;5003340;28;20049;-70
2022/08/30 05:02:57;;;;;;;7.22;3.40;;;;;;;;;;5002685;28;20045;-71
2022/08/30 05:05:38;;;;;;;7.70;3.13;;;;;;;;;;5003655;28;20042;-70
2022/08/30 05:08:04;;;;;;;8.27;2.85;;;;;;;;;;4990104;28;20108;-70
2022/08/30 05:10:30;;;;;;;7.68;2.80;;;;;;;;;;5003465;28;20029;-70
2022/08/30 05:12:56;;;;;;;4.55;2.63;;;;;;;;;;5001550;28;20053;-69
2022/08/30 05:15:21;;;;;;;7.47;2.80;;;;;;;;;;5003371;28;21098;-70
2022/08/30 05:17:47;;;;;;;5.75;3.00;;;;;;;;;;5002044;28;20117;-71
2022/08/30 05:20:12;;;;;;;6.70;2.50;;;;;;;;;;5002346;28;20056;-70
2022/08/30 05:22:40;;;;;;;10.05;2.75;;;;;;;;;;5004077;28;20029;-70
2022/08/30 05:25:07;;;;;;;5.60;2.63;;;;;;;;;;4997351;28;20077;-70
2022/08/30 05:27:33;;;;;;;6.45;2.72;;;;;;;;;;5001598;28;20240;-69
2022/08/30 05:29:59;;;;;;;4.25;2.17;;;;;;;;;;5002918;28;20106;-70
2022/08/30 05:32:24;;;;;;;5.18;2.50;;;;;;;;;;4998795;28;20060;-69
2022/08/30 05:34:50;;;;;;;8.48;2.50;;;;;;;;;;5003054;28;20486;-70
2022/08/30 05:37:15;;;;;;;6.88;2.55;;;;;;;;;;5001487;28;20038;-70
2022/08/30 05:39:41;;;;;;;5.53;2.78;;;;;;;;;;5005316;28;20042;-70
2022/08/30 05:42:06;;;;;;;5.20;3.22;;;;;;;;;;5000737;28;20049;-70
2022/08/30 05:44:32;;;;;;;5.63;3.42;;;;;;;;;;4999956;28;20112;-69
2022/08/30 05:46:57;;;;;;;6.53;3.35;;;;;;;;;;5001081;28;20438;-69
2022/08/30 05:49:22;;;;;;;7.38;3.08;;;;;;;;;;4982143;28;20109;-70
2022/08/30 05:51:48;;;;;;;7.75;3.00;;;;;;;;;;4985020;28;20309;-70
2022/08/30 05:54:14;;;;;;;4.88;2.50;;;;;;;;;;4998884;28;20480;-70
2022/08/30 05:56:44;;;;;;;6.00;3.10;;;;;;;;;;5001148;28;20396;-70
2022/08/30 05:59:10;;;;;;;8.15;3.20;;;;;;;;;;4999941;28;20096;-69
2022/08/30 06:01:41;;;;;;;5.65;2.70;;;;;;;;;;5003561;28;20120;-70
2022/08/30 06:04:08;;;;;;;10.23;3.40;;;;;;;;;;4998888;28;20051;-70
2022/08/30 06:06:36;;;;;;;8.63;3.17;;;;;;;;;;4997443;28;20053;-70
2022/08/30 06:09:04;;;;;;;8.88;3.03;;;;;;;;;;4997079;28;20140;-70
2022/08/30 06:11:29;;;;;;;7.68;2.78;;;;;;;;;;5000063;28;20627;-69
2022/08/30 06:13:55;;;;;;;8.90;2.92;;;;;;;;;;5000488;28;20400;-68
2022/08/30 06:16:23;;;;;;;5.85;2.78;;;;;;;;;;5001539;28;20415;-70
2022/08/30 06:18:49;;;;;;;6.05;2.90;;;;;;;;;;5003027;28;20046;-69
2022/08/30 06:21:34;;;;;;;8.27;3.10;;;;;;;;;;5000409;28;20136;-68
2022/08/30 06:24:01;;;;;;;6.90;2.78;;;;;;;;;;5000287;28;20076;-67
2022/08/30 06:26:28;;;;;;;10.30;2.92;;;;;;;;;;4995928;28;20511;-67
2022/08/30 06:28:54;;;;;;;5.90;2.70;;;;;;;;;;4984344;28;20029;-66
2022/08/30 06:31:21;;;;;;;7.43;3.08;;;;;;;;;;5000582;28;20044;-66
2022/08/30 06:33:48;;;;;;;9.45;3.00;;;;;;;;;;4986367;28;20049;-66
2022/08/30 06:36:17;;;;;;;6.57;2.70;;;;;;;;;;5000584;28;20049;-66
2022/08/30 06:38:44;;;;;;;8.23;3.10;;;;;;;;;;4999284;28;20038;-65
2022/08/30 06:41:13;;;;;;;7.97;2.50;;;;;;;;;;4996946;28;20046;-66
2022/08/30 06:43:39;;;;;;;8.98;2.97;;;;;;;;;;4994890;28;20081;-66
2022/08/30 06:46:08;;;;;;;9.10;2.65;;;;;;;;;;4999435;28;20141;-66
2022/08/30 06:48:34;;;;;;;8.48;2.70;;;;;;;;;;5004014;28;20045;-66
2022/08/30 06:50:59;;;;;;;6.25;2.53;;;;;;;;;;5000182;28;20060;-65
2022/08/30 06:53:27;;;;;;;9.85;3.28;;;;;;;;;;4999836;28;20057;-65
2022/08/30 06:55:56;;;;;;;14.02;3.47;;;;;;;;;;4985054;28;20718;-66
2022/08/30 06:58:21;;;;;;;12.57;3.17;;;;;;;;;;5005520;28;20627;-66
2022/08/30 07:00:47;;;;;;;21.48;3.00;;;;;;;;;;5004230;28;20498;-65
2022/08/30 07:03:12;;;;;;;18.00;3.20;;;;;;;;;;5007355;28;20450;-65
2022/08/30 07:05:38;;;;;;;14.00;2.60;;;;;;;;;;5007348;28;20057;-66
2022/08/30 07:08:03;;;;;;;24.45;3.88;;;;;;;;;;5005076;28;20535;-65
2022/08/30 07:10:28;;;;;;;20.30;2.88;;;;;;;;;;5006447;28;20037;-66
2022/08/30 07:12:54;;;;;;;17.80;3.95;;;;;;;;;;5004855;28;20054;-66
2022/08/30 07:15:21;;;;;;;31.92;4.30;;;;;;;;;;4994526;28;20046;-66
2022/08/30 07:20:31;;;;;;;11.90;2.55;;;;;;;;;;5003585;28;20124;-66
2022/08/30 07:22:57;;;;;;;14.63;2.60;;;;;;;;;;5001029;28;20066;-66
2022/08/30 07:25:22;;;;;;;10.68;2.55;;;;;;;;;;4999254;28;20091;-66
2022/08/30 07:27:50;;;;;;;12.63;2.70;;;;;;;;;;5003454;28;20042;-66
2022/08/30 07:30:17;;;;;;;11.13;3.10;;;;;;;;;;4988008;28;20056;-65
2022/08/30 07:32:43;;;;;;;20.80;3.15;;;;;;;;;;5003566;28;20515;-65
2022/08/30 07:35:09;;;;;;;15.48;2.70;;;;;;;;;;5001545;28;20050;-65
2022/08/30 07:37:34;;;;;;;16.63;3.45;;;;;;;;;;5000846;28;20088;-66
2022/08/30 07:40:01;;;;;;;8.60;3.47;;;;;;;;;;5004735;28;20141;-65
2022/08/30 07:42:26;;;;;;;26.75;3.45;;;;;;;;;;4982445;28;20072;-67
2022/08/30 07:44:51;;;;;;;10.02;2.35;;;;;;;;;;5003682;28;20508;-67
2022/08/30 07:47:17;;;;;;;13.07;2.83;;;;;;;;;;5008857;28;20050;-66
2022/08/30 07:49:42;;;;;;;15.73;2.83;;;;;;;;;;4988491;28;20527;-65
2022/08/30 07:52:08;;;;;;;7.53;2.03;;;;;;;;;;5001591;28;20059;-65
2022/08/30 07:54:33;;;;;;;21.38;2.85;;;;;;;;;;4998181;28;20048;-66
2022/08/30 07:56:58;;;;;;;9.15;2.00;;;;;;;;;;5000228;28;20058;-66
2022/08/30 07:59:24;;;;;;;14.43;2.75;;;;;;;;;;5005891;28;20050;-67
2022/08/30 08:01:49;;;;;;;3.95;2.38;;;;;;;;;;5002902;28;20037;-66
2022/08/30 08:04:15;;;;;;;6.97;1.73;;;;;;;;;;5002703;28;20082;-66
2022/08/30 08:06:41;;;;;;;6.90;2.35;;;;;;;;;;5003568;28;20061;-66
2022/08/30 08:09:07;;;;;;;5.55;2.10;;;;;;;;;;5000749;28;20068;-66
2022/08/30 08:11:34;;;;;;;9.25;2.75;;;;;;;;;;5000590;28;20423;-66
2022/08/30 08:14:00;;;;;;;6.55;2.25;;;;;;;;;;4998442;28;20042;-66
2022/08/30 08:16:28;;;;;;;5.45;2.15;;;;;;;;;;4995700;28;20514;-67
2022/08/30 08:18:54;;;;;;;6.53;2.10;;;;;;;;;;5002375;28;20049;-66
2022/08/30 08:21:21;;;;;;;6.72;2.10;;;;;;;;;;5001194;28;20038;-65
2022/08/30 08:23:47;;;;;;;12.32;1.90;;;;;;;;;;5007009;28;20045;-66
2022/08/30 08:26:12;;;;;;;8.15;2.00;;;;;;;;;;5001243;28;20794;-65
2022/08/30 08:28:38;;;;;;;6.07;1.98;;;;;;;;;;5001347;28;20033;-65
2022/08/30 08:31:16;;;;;;;9.10;2.00;;;;;;;;;;5004047;28;20052;-66
2022/08/30 08:33:42;;;;;;;6.72;2.35;;;;;;;;;;5005034;28;20133;-66
2022/08/30 08:36:08;;;;;;;8.38;2.47;;;;;;;;;;5001492;28;20983;-66
2022/08/30 08:38:33;;;;;;;7.57;2.33;;;;;;;;;;5006118;28;20358;-65
2022/08/30 08:41:25;;;;;;;16.58;2.72;;;;;;;;;;4999517;28;20034;-65
2022/08/30 08:43:51;;;;;;;8.30;1.90;;;;;;;;;;4984860;28;20049;-65
2022/08/30 08:46:41;;;;;;;9.95;2.75;;;;;;;;;;5003963;28;20031;-67
2022/08/30 08:49:07;;;;;;;5.20;2.20;;;;;;;;;;4999908;28;20101;-66
2022/08/30 08:54:45;;;;;;;4.53;2.13;;;;;;;;;;5003763;28;20056;-66
2022/08/30 08:57:11;;;;;;;7.45;2.10;;;;;;;;;;5001119;28;20141;-66
2022/08/30 08:59:37;;;;;;;10.05;1.98;;;;;;;;;;4998340;28;20117;-66
2022/08/30 09:02:27;;;;;;;8.00;2.38;;;;;;;;;;4999594;28;20030;-66
2022/08/30 09:05:00;;;;;;;7.45;1.77;;;;;;;;;;5004252;28;20137;-67
2022/08/30 09:07:31;;;;;;;6.13;2.28;;;;;;;;;;5001643;28;20054;-66
2022/08/30 09:09:59;;;;;;;5.07;2.00;;;;;;;;;;5001558;28;20040;-66
2022/08/30 09:12:26;;;;;;;5.70;2.05;;;;;;;;;;5000932;28;20103;-66
2022/08/30 09:15:01;;;;;;;7.30;1.75;;;;;;;;;;5002071;28;20672;-66
2022/08/30 09:17:26;;;;;;;5.82;1.80;;;;;;;;;;5004516;28;20053;-66
2022/08/30 09:19:52;;;;;;;5.90;1.95;;;;;;;;;;5004042;28;20095;-65
2022/08/30 09:22:33;;;;;;;10.20;2.30;;;;;;;;;;5004535;28;20125;-65
2022/08/30 09:25:07;;;;;;;9.90;2.03;;;;;;;;;;5006168;28;20042;-65
2022/08/30 09:27:34;;;;;;;6.93;2.30;;;;;;;;;;5003771;28;20068;-66
2022/08/30 09:30:14;;;;;;;6.35;2.85;;;;;;;;;;5003222;28;21249;-66
2022/08/30 09:32:43;;;;;;;6.35;2.00;;;;;;;;;;5000271;28;20095;-65
2022/08/30 09:35:17;;;;;;;5.15;2.17;;;;;;;;;;5000482;28;20061;-66
2022/08/30 09:38:03;;;;;;;3.22;1.83;;;;;;;;;;5005092;28;20045;-66
2022/08/30 09:40:47;;;;;;;9.23;2.13;;;;;;;;;;5001839;28;20145;-66
2022/08/30 09:43:15;;;;;;;6.32;2.20;;;;;;;;;;5003685;28;20672;-66
2022/08/30 09:45:44;;;;;;;7.28;1.75;;;;;;;;;;4982998;28;20484;-66
2022/08/30 09:48:30;;;;;;;5.78;2.33;;;;;;;;;;5004682;28;20052;-65
2022/08/30 09:51:10;;;;;;;5.85;1.63;;;;;;;;;;5002968;28;20125;-66
2022/08/30 09:54:04;;;;;;;5.05;1.60;;;;;;;;;;5002597;28;20050;-66
2022/08/30 09:57:12;;;;;;;5.00;2.15;;;;;;;;;;5002386;28;20053;-66
2022/08/30 10:00:17;;;;;;;6.60;1.85;;;;;;;;;;5000422;28;20053;-66
2022/08/30 10:02:54;;;;;;;8.57;1.77;;;;;;;;;;4923412;29;20175;-66
2022/08/30 10:05:38;;;;;;;7.47;2.10;;;;;;;;;;4992651;28;20054;-66
2022/08/30 10:08:46;;;;;;;4.10;1.98;;;;;;;;;;4998626;28;20042;-66
2022/08/30 10:11:24;;;;;;;3.33;1.83;;;;;;;;;;4965326;28;20056;-66
2022/08/30 10:13:56;;;;;;;4.20;2.05;;;;;;;;;;4998232;28;20084;-65
2022/08/30 10:16:36;;;;;;;6.88;1.80;;;;;;;;;;4993558;28;20069;-66
2022/08/30 10:19:07;;;;;;;3.42;1.70;;;;;;;;;;5001668;28;20054;-66
2022/08/30 10:22:02;;;;;;;4.63;1.73;;;;;;;;;;5004918;28;20042;-66
2022/08/30 10:24:34;;;;;;;3.58;1.85;;;;;;;;;;4993562;28;20054;-66
2022/08/30 10:27:06;;;;;;;;;;;;;;;;;;4982882;28;20091;-66
2022/08/30 10:29:58;;;;;;;3.40;1.70;;;;;;;;;;5005342;28;19916;-66
2022/08/30 10:32:31;;;;;;;5.82;2.10;;;;;;;;;;5004664;28;20052;-66
2022/08/30 10:35:07;;;;;;;10.77;1.90;;;;;;;;;;5004182;28;20037;-66
2022/08/30 10:37:38;;;;;;;10.32;2.20;;;;;;;;;;4993793;28;20088;-66
2022/08/30 10:43:12;;;;;;;3.72;1.90;;;;;;;;;;5000627;28;20097;-70
2022/08/30 10:45:43;;;;;;;5.07;1.67;;;;;;;;;;5006840;28;20424;-67
2022/08/30 10:48:16;;;;;;;3.78;1.70;;;;;;;;;;5003482;28;20050;-66
2022/08/30 10:50:43;;;;;;;;;;;;;;;;;;4998510;28;20054;-66
2022/08/30 10:53:14;;;;;;;4.55;1.73;;;;;;;;;;5001781;28;19917;-66
2022/08/30 10:55:52;;;;;;;3.75;1.65;;;;;;;;;;5005330;28;20060;-65
2022/08/30 10:58:18;;;;;;;5.55;1.98;;;;;;;;;;5003580;28;20066;-66
2022/08/30 11:00:56;;;;;;;4.65;1.70;;;;;;;;;;5005230;28;20056;-66
2022/08/30 11:03:38;;;;;;;8.02;2.10;;;;;;;;;;5002282;28;20616;-66
2022/08/30 11:06:41;;;;;;;9.07;1.92;;;;;;;;;;5003864;28;20057;-66
2022/08/30 11:09:16;;;;;;;8.02;2.33;;;;;;;;;;5005287;28;20064;-66
2022/08/30 11:12:06;;;;;;;5.32;1.73;;;;;;;;;;5005008;28;20056;-67
2022/08/30 11:14:32;;;;;;;4.15;1.70;;;;;;;;;;5006578;28;20561;-66
2022/08/30 11:17:00;;;;;;;4.80;1.92;;;;;;;;;;5001463;28;20034;-67
2022/08/30 11:19:38;;;;;;;4.43;1.70;;;;;;;;;;5004679;28;20120;-66
2022/08/30 11:22:26;;;;;;;7.15;1.63;;;;;;;;;;5000731;28;20042;-67
2022/08/30 11:25:04;;;;;;;3.38;1.63;;;;;;;;;;5006694;28;20053;-66
2022/08/30 11:27:45;;;;;;;3.63;1.80;;;;;;;;;;5002176;28;20068;-66
2022/08/30 11:30:25;;;;;;;6.68;1.77;;;;;;;;;;5002858;28;20515;-73
2022/08/30 11:33:04;;;;;;;2.42;1.65;;;;;;;;;;5002452;28;20055;-74
2022/08/30 11:35:40;;;;;;;5.55;1.55;;;;;;;;;;5001557;28;20069;-74
2022/08/30 11:38:24;;;;;;;3.38;1.52;;;;;;;;;;5001019;28;20852;-70
2022/08/30 11:40:55;;;;;;;5.45;1.90;;;;;;;;;;4988869;28;20057;-69
2022/08/30 11:43:33;;;;;;;6.40;2.08;;;;;;;;;;5002508;28;20052;-71
2022/08/30 11:46:24;;;;;;;3.83;1.48;;;;;;;;;;4986831;28;20050;-71
2022/08/30 11:48:54;;;;;;;2.97;1.60;;;;;;;;;;5002641;28;20042;-70
2022/08/30 11:51:37;;;;;;;4.05;1.58;;;;;;;;;;5001776;28;20057;-70
2022/08/30 11:54:02;;;;;;;4.15;1.90;;;;;;;;;;4994850;28;20174;-70
2022/08/30 11:56:43;;;;;;;5.88;1.92;;;;;;;;;;5002386;28;20513;-71
2022/08/30 11:59:42;;;;;;;5.43;1.80;;;;;;;;;;5000869;28;20137;-72
2022/08/30 12:02:07;;;;;;;4.50;1.42;;;;;;;;;;4998919;28;20049;-70
2022/08/30 12:04:45;;;;;;;4.95;1.55;;;;;;;;;;4999090;28;20112;-72
2022/08/30 12:07:49;;;;;;;6.78;1.63;;;;;;;;;;5001321;28;20174;-71
2022/08/30 12:10:36;;;;;;;8.43;1.70;;;;;;;;;;5006392;28;20165;-73
2022/08/30 12:13:02;;;;;;;7.88;1.80;;;;;;;;;;5002950;28;21218;-71
2022/08/30 12:16:01;;;;;;;3.63;2.10;;;;;;;;;;5002859;28;20046;-73
2022/08/30 12:18:37;;;;;;;4.28;2.10;;;;;;;;;;5002896;28;20408;-71
2022/08/30 12:21:11;;;;;;;3.60;2.13;;;;;;;;;;4996212;28;20058;-73
2022/08/30 12:23:48;;;;;;;4.28;1.98;;;;;;;;;;5000991;28;20038;-72
2022/08/30 12:26:23;;;;;;;2.75;1.50;;;;;;;;;;5005393;28;20060;-72
2022/08/30 12:28:50;;;;;;;7.22;1.83;;;;;;;;;;5002459;28;20473;-72
2022/08/30 12:31:24;;;;;;;4.93;2.00;;;;;;;;;;4998760;28;20040;-72
2022/08/30 12:33:55;;;;;;;3.58;1.90;;;;;;;;;;4997849;28;20109;-67
2022/08/30 12:36:33;;;;;;;3.42;1.85;;;;;;;;;;5000033;28;20060;-70
2022/08/30 12:39:09;;;;;;;5.55;2.00;;;;;;;;;;5001065;28;20056;-68
2022/08/30 12:41:34;;;;;;;4.88;1.90;;;;;;;;;;4995403;28;20053;-69
2022/08/30 12:44:00;;;;;;;5.03;1.65;;;;;;;;;;4988451;28;20038;-68
2022/08/30 12:46:27;;;;;;;5.32;1.88;;;;;;;;;;5004539;28;20038;-70
2022/08/30 12:48:53;;;;;;;3.83;1.58;;;;;;;;;;5001178;28;20140;-69
2022/08/30 12:51:35;;;;;;;8.07;2.10;;;;;;;;;;4996866;28;20136;-68
2022/08/30 12:54:13;;;;;;;6.63;1.83;;;;;;;;;;4997125;28;20534;-69
2022/08/30 12:57:00;;;;;;;2.75;1.60;;;;;;;;;;4992387;28;20053;-72
2022/08/30 12:59:45;;;;;;;6.85;1.80;;;;;;;;;;4985108;28;20056;-71
2022/08/30 13:02:13;;;;;;;3.50;1.70;;;;;;;;;;4996806;28;20547;-69
2022/08/30 13:04:39;;;;;;;2.17;1.80;;;;;;;;;;4985205;28;20029;-67
2022/08/30 13:07:05;;;;;;;5.03;1.90;;;;;;;;;;4997456;28;20092;-69
2022/08/30 13:09:40;;;;;;;5.78;2.33;;;;;;;;;;5002215;28;20057;-71
2022/08/30 13:12:19;;;;;;;2.85;1.45;;;;;;;;;;5000063;28;20129;-74
2022/08/30 13:14:45;;;;;;;3.42;1.90;;;;;;;;;;4999132;28;20081;-70
2022/08/30 13:17:29;;;;;;;4.40;1.77;;;;;;;;;;5001081;28;21121;-73
2022/08/30 13:20:04;;;;;;;1.95;1.75;;;;;;;;;;5004290;28;20133;-71
2022/08/30 13:22:37;;;;;;;2.40;1.50;;;;;;;;;;4990715;28;20060;-68
2022/08/30 13:25:04;;;;;;;3.78;2.00;;;;;;;;;;5003483;28;20495;-73
2022/08/30 13:27:31;;;;;;;5.43;1.90;;;;;;;;;;5003519;28;20058;-74
2022/08/30 13:29:57;;;;;;;2.72;1.60;;;;;;;;;;5002954;28;20042;-73
2022/08/30 13:32:23;;;;;;;3.55;2.03;;;;;;;;;;4996912;28;20100;-73
2022/08/30 13:34:49;;;;;;;2.50;1.60;;;;;;;;;;5002507;28;20034;-74
2022/08/30 13:37:20;;;;;;;3.28;1.70;;;;;;;;;;5005454;28;20052;-70
2022/08/30 13:39:45;;;;;;;2.25;1.70;;;;;;;;;;4999768;28;20140;-73
2022/08/30 13:42:10;;;;;;;2.22;1.70;;;;;;;;;;5003852;28;20129;-74
2022/08/30 13:44:36;;;;;;;4.65;1.80;;;;;;;;;;5002486;28;20458;-74
2022/08/30 13:47:03;;;;;;;2.50;1.63;;;;;;;;;;4999088;28;20037;-70
2022/08/30 13:49:38;;;;;;;2.38;1.67;;;;;;;;;;5000615;28;20033;-72
2022/08/30 13:52:05;;;;;;;3.13;1.92;;;;;;;;;;5002373;28;20076;-75
2022/08/30 13:54:31;;;;;;;3.05;1.80;;;;;;;;;;5003318;28;20056;-74
2022/08/30 13:56:57;;;;;;;4.13;1.70;;;;;;;;;;4998634;28;20054;-74
2022/08/30 13:59:23;;;;;;;3.97;1.92;;;;;;;;;;4999476;28;20148;-74
2022/08/30 14:01:49;;;;;;;3.90;2.00;;;;;;;;;;4980919;28;20119;-73
2022/08/30 14:04:15;;;;;;;3.95;1.92;;;;;;;;;;5005461;28;20099;-75
2022/08/30 14:06:41;;;;;;;5.95;1.88;;;;;;;;;;4989105;28;20137;-78
2022/08/30 14:09:06;;;;;;;2.90;1.95;;;;;;;;;;5002768;28;20180;-73
2022/08/30 14:11:33;;;;;;;8.50;2.20;;;;;;;;;;4998620;28;20137;-73
2022/08/30 14:13:59;;;;;;;3.33;1.67;;;;;;;;;;5008664;28;20034;-74
2022/08/30 14:16:25;;;;;;;3.80;1.80;;;;;;;;;;5002861;28;20041;-76
2022/08/30 14:18:51;;;;;;;4.90;1.80;;;;;;;;;;5002480;28;20424;-75
2022/08/30 14:21:17;;;;;;;4.53;1.65;;;;;;;;;;5005128;28;20064;-74
2022/08/30 14:23:43;;;;;;;1.90;1.70;;;;;;;;;;4999272;28;20053;-75
2022/08/30 14:26:19;;;;;;;6.53;1.77;;;;;;;;;;5002367;28;20590;-75
2022/08/30 14:28:45;;;;;;;2.00;1.80;;;;;;;;;;4991838;28;20040;-70
2022/08/30 14:31:11;;;;;;;4.00;1.90;;;;;;;;;;5002861;28;20042;-76
2022/08/30 14:33:37;;;;;;;2.28;1.70;;;;;;;;;;5006402;28;20385;-74
2022/08/30 14:36:04;;;;;;;2.72;1.60;;;;;;;;;;5004194;28;20597;-75
2022/08/30 14:38:30;;;;;;;2.50;1.80;;;;;;;;;;4997912;28;20400;-74
2022/08/30 14:40:55;;;;;;;5.47;1.90;;;;;;;;;;5001945;28;20041;-71
2022/08/30 14:43:21;;;;;;;4.05;1.77;;;;;;;;;;5002088;28;20049;-74
2022/08/30 14:45:46;;;;;;;3.55;1.88;;;;;;;;;;4999213;28;20049;-73
2022/08/30 14:48:11;;;;;;;1.98;1.70;;;;;;;;;;4988966;28;20095;-74
2022/08/30 14:50:38;;;;;;;5.38;1.90;;;;;;;;;;5000541;28;20484;-74
2022/08/30 14:53:04;;;;;;;4.03;1.90;;;;;;;;;;5003196;28;20045;-72
2022/08/30 14:55:31;;;;;;;2.53;1.70;;;;;;;;;;4999629;28;20041;-74
2022/08/30 14:57:57;;;;;;;3.60;1.80;;;;;;;;;;5000313;28;20046;-74
2022/08/30 15:00:23;;;;;;;3.67;1.92;;;;;;;;;;5001595;28;20369;-74
2022/08/30 15:02:49;;;;;;;2.92;1.80;;;;;;;;;;5007475;28;20054;-74
2022/08/30 15:05:15;;;;;;;3.40;1.70;;;;;;;;;;5003629;28;20084;-73
2022/08/30 15:07:41;;;;;;;3.88;2.00;;;;;;;;;;5001384;28;20061;-74